Time;durP1;ratioP1;P1;durP2;ratioP2;P2;SDS_P1;SDS_P2;PMS_P1;PMS_P2;Temp;Humidity;BMP_temperature;BMP_pressure;BME280_temperature;BME280_humidity;BME280_pressure;Samples;Min_cycle;Max_cycle;Signal;HPM_P1;HPM_P2
2021/05/27 00:04:19;;;;;;;11.32;10.13;;;23.70;54.40;;;;;;4802735;54;21489;-38
2021/05/27 00:09:20;;;;;;;11.80;10.55;;;23.70;54.40;;;;;;4820264;54;22075;-38
2021/05/27 00:14:21;;;;;;;12.20;10.90;;;23.80;55.20;;;;;;4812045;54;21029;-39
2021/05/27 00:19:22;;;;;;;11.85;10.55;;;23.70;54.40;;;;;;4794189;58;20983;-36
2021/05/27 00:24:23;;;;;;;13.32;11.07;;;23.80;54.40;;;;;;4822970;54;21035;-42
2021/05/27 00:29:24;;;;;;;11.38;10.15;;;23.70;54.50;;;;;;4817189;54;21009;-37
2021/05/27 00:34:25;;;;;;;11.10;9.65;;;23.70;54.40;;;;;;4798974;54;21024;-33
2021/05/27 00:39:26;;;;;;;11.98;10.65;;;23.70;54.40;;;;;;4814603;54;20988;-35
2021/05/27 00:44:29;;;;;;;11.95;9.88;;;23.70;54.40;;;;;;4838008;54;21095;-36
2021/05/27 00:49:30;;;;;;;11.23;9.98;;;23.80;54.40;;;;;;4813259;54;21000;-35
2021/05/27 00:54:31;;;;;;;11.98;10.50;;;23.70;54.40;;;;;;4802770;54;21107;-39
2021/05/27 00:59:32;;;;;;;11.25;10.02;;;23.70;54.40;;;;;;4815164;54;21071;-40
2021/05/27 01:04:33;;;;;;;11.90;10.25;;;23.70;54.40;;;;;;4793747;58;21055;-37
2021/05/27 01:09:34;;;;;;;13.40;10.30;;;23.70;54.40;;;;;;4842658;54;21049;-38
2021/05/27 01:19:55;;;;;;;10.88;9.50;;;23.70;54.30;;;;;;4793919;54;21613;-38
2021/05/27 01:24:56;;;;;;;11.27;10.10;;;23.70;54.30;;;;;;4848464;54;21035;-37
2021/05/27 01:29:57;;;;;;;10.35;9.25;;;23.70;54.40;;;;;;4794303;58;21074;-40
2021/05/27 01:34:58;;;;;;;10.90;9.48;;;23.70;54.30;;;;;;4809108;54;21111;-37
2021/05/27 01:40:01;;;;;;;11.07;9.88;;;23.70;54.30;;;;;;4794246;58;21916;-36
2021/05/27 01:45:04;;;;;;;10.23;9.10;;;23.70;54.40;;;;;;4807694;54;21027;-39
2021/05/27 01:50:08;;;;;;;9.60;8.45;;;23.70;54.30;;;;;;4794346;58;21470;-38
2021/05/27 01:55:10;;;;;;;9.95;8.95;;;23.70;54.30;;;;;;4801876;54;21063;-38
2021/05/27 02:00:12;;;;;;;10.25;8.63;;;23.70;54.30;;;;;;4800820;54;21065;-38
2021/05/27 02:05:13;;;;;;;10.18;8.50;;;23.70;54.30;;;;;;4808146;54;21114;-37
2021/05/27 02:10:14;;;;;;;10.25;9.02;;;23.70;54.30;;;;;;4893159;54;20979;-37
2021/05/27 02:15:15;;;;;;;10.13;9.13;;;23.70;54.30;;;;;;4794756;58;21047;-36
2021/05/27 02:20:16;;;;;;;10.40;8.70;;;23.70;54.20;;;;;;4819404;54;20968;-40
2021/05/27 02:25:17;;;;;;;9.05;8.15;;;23.70;54.30;;;;;;4794350;58;20983;-38
2021/05/27 02:30:19;;;;;;;8.68;7.78;;;23.70;54.20;;;;;;4834203;54;20988;-38
2021/05/27 02:35:20;;;;;;;8.52;7.62;;;23.70;54.20;;;;;;4826027;54;21007;-39
2021/05/27 02:40:21;;;;;;;10.48;8.70;;;23.70;54.20;;;;;;4835599;54;22401;-38
2021/05/27 02:45:21;;;;;;;8.80;7.90;;;23.70;54.30;;;;;;4829273;54;21017;-39
2021/05/27 02:50:22;;;;;;;9.27;8.27;;;23.70;54.20;;;;;;4798668;54;21007;-39
2021/05/27 02:55:23;;;;;;;10.45;8.02;;;23.70;54.20;;;;;;4876545;54;21000;-37
2021/05/27 03:00:24;;;;;;;9.38;8.30;;;23.70;54.20;;;;;;4825806;54;20999;-33
2021/05/27 03:05:25;;;;;;;8.82;7.70;;;23.70;54.20;;;;;;4808444;54;21046;-40
2021/05/27 03:10:26;;;;;;;8.70;7.37;;;23.70;54.10;;;;;;4794148;58;21050;-35
2021/05/27 03:15:26;;;;;;;9.20;8.05;;;23.70;54.10;;;;;;4842892;54;21095;-41
2021/05/27 03:20:28;;;;;;;8.65;7.75;;;23.70;54.10;;;;;;4837290;54;21015;-40
2021/05/27 03:25:28;;;;;;;8.52;7.35;;;23.70;54.10;;;;;;4801242;54;21086;-38
2021/05/27 03:30:29;;;;;;;9.38;7.87;;;23.70;54.10;;;;;;4794534;55;21031;-39
2021/05/27 03:35:31;;;;;;;9.15;8.02;;;23.70;54.00;;;;;;4802319;54;21026;-38
2021/05/27 03:40:32;;;;;;;8.65;7.75;;;23.70;54.10;;;;;;4799440;54;21486;-37
2021/05/27 03:45:34;;;;;;;8.05;7.15;;;23.70;54.00;;;;;;4810683;54;21134;-37
2021/05/27 03:50:35;;;;;;;8.68;7.65;;;23.70;54.00;;;;;;4815910;54;21042;-38
2021/05/27 03:55:36;;;;;;;7.78;6.90;;;23.70;54.00;;;;;;4818128;54;21100;-40
2021/05/27 04:00:46;;;;;;;8.43;7.47;;;23.70;54.00;;;;;;4800145;54;22369;-42
2021/05/27 04:11:06;;;;;;;7.70;6.90;;;23.60;53.90;;;;;;4794197;58;21110;-40
2021/05/27 04:16:07;;;;;;;8.63;6.72;;;23.70;53.90;;;;;;4803101;54;21046;-39
2021/05/27 04:21:08;;;;;;;8.82;7.22;;;23.70;53.80;;;;;;4794155;58;21022;-39
2021/05/27 04:26:12;;;;;;;8.77;6.85;;;23.70;53.80;;;;;;4829254;54;21098;-38
2021/05/27 04:31:17;;;;;;;8.40;7.45;;;23.60;54.50;;;;;;4800085;54;21493;-38
2021/05/27 04:36:20;;;;;;;8.02;7.15;;;23.60;53.80;;;;;;4794127;58;21063;-38
2021/05/27 04:41:22;;;;;;;7.95;6.85;;;23.60;53.80;;;;;;4795776;54;20971;-35
2021/05/27 04:46:23;;;;;;;9.15;6.43;;;23.60;53.80;;;;;;4834993;54;21565;-39
2021/05/27 04:51:24;;;;;;;7.15;6.45;;;23.60;53.70;;;;;;4806326;54;21478;-38
2021/05/27 04:56:24;;;;;;;9.05;7.20;;;23.60;54.00;;;;;;4819886;54;21047;-38
2021/05/27 05:01:28;;;;;;;7.93;6.85;;;23.60;53.70;;;;;;4793950;58;21036;-36
2021/05/27 05:06:29;;;;;;;8.13;6.65;;;23.60;53.60;;;;;;4815080;54;21087;-38
2021/05/27 05:11:29;;;;;;;8.27;6.80;;;23.60;53.50;;;;;;4794363;55;20976;-39
2021/05/27 05:16:30;;;;;;;7.12;6.43;;;23.60;53.50;;;;;;4813735;54;21015;-38
2021/05/27 05:21:31;;;;;;;7.12;6.30;;;23.60;53.40;;;;;;4804856;54;21011;-38
2021/05/27 05:26:32;;;;;;;7.65;6.78;;;23.60;53.40;;;;;;4822939;54;20984;-38
2021/05/27 05:31:33;;;;;;;7.55;6.43;;;23.60;53.40;;;;;;4793832;58;21059;-37
2021/05/27 05:36:33;;;;;;;7.78;6.45;;;23.60;53.30;;;;;;4807098;54;21042;-37
2021/05/27 05:41:34;;;;;;;8.27;7.07;;;23.60;53.30;;;;;;4824204;54;20979;-37
2021/05/27 05:46:35;;;;;;;8.75;6.50;;;23.60;53.20;;;;;;4794674;54;21581;-32
2021/05/27 05:51:36;;;;;;;7.35;6.55;;;23.60;53.20;;;;;;4794375;55;20995;-34
2021/05/27 05:56:38;;;;;;;7.65;6.85;;;23.60;53.20;;;;;;4799295;54;21461;-35
2021/05/27 06:01:39;;;;;;;6.93;6.22;;;23.60;53.80;;;;;;4818957;54;21069;-39
2021/05/27 06:06:40;;;;;;;7.50;6.70;;;23.60;53.10;;;;;;4831773;54;21026;-37
2021/05/27 06:11:40;;;;;;;7.05;6.35;;;23.60;53.10;;;;;;4794741;58;21003;-34
2021/05/27 06:16:41;;;;;;;7.12;6.32;;;23.60;53.10;;;;;;4823030;54;21470;-34
2021/05/27 06:21:42;;;;;;;8.07;6.55;;;23.60;53.10;;;;;;4794500;58;21046;-37
2021/05/27 06:26:43;;;;;;;7.53;6.72;;;23.60;53.10;;;;;;4825481;54;21007;-33
2021/05/27 06:31:45;;;;;;;8.38;6.93;;;23.60;53.00;;;;;;4811015;54;21015;-46
2021/05/27 06:36:46;;;;;;;8.85;7.43;;;23.60;53.00;;;;;;4818004;54;21504;-37
2021/05/27 06:41:47;;;;;;;8.52;7.10;;;23.60;53.10;;;;;;4850701;54;21081;-35
2021/05/27 06:46:48;;;;;;;8.65;7.03;;;23.60;53.00;;;;;;4818345;54;21004;-35
2021/05/27 06:51:49;;;;;;;7.60;6.80;;;23.60;53.00;;;;;;4871622;54;21038;-36
2021/05/27 06:56:52;;;;;;;7.93;7.03;;;23.60;53.10;;;;;;4799652;54;21122;-38
2021/05/27 07:01:53;;;;;;;8.93;7.00;;;23.60;53.00;;;;;;4807337;54;21526;-40
2021/05/27 07:06:54;;;;;;;8.75;7.28;;;23.60;52.90;;;;;;4804024;54;21143;-39
2021/05/27 07:11:55;;;;;;;8.18;7.12;;;23.60;53.10;;;;;;4831093;54;21047;-38
2021/05/27 07:16:56;;;;;;;8.50;7.60;;;23.60;53.10;;;;;;4798794;54;20999;-39
2021/05/27 07:22:00;;;;;;;7.90;7.07;;;23.70;53.30;;;;;;4793781;55;21003;-38
2021/05/27 07:27:01;;;;;;;9.77;7.32;;;23.70;53.40;;;;;;4808699;54;21034;-38
2021/05/27 07:32:05;;;;;;;8.45;7.55;;;23.80;53.50;;;;;;4793542;55;21126;-38
2021/05/27 07:37:06;;;;;;;10.32;8.20;;;23.80;53.50;;;;;;4803081;54;21133;-40
2021/05/27 07:42:07;;;;;;;9.10;7.68;;;23.90;53.60;;;;;;4802575;54;21591;-39
2021/05/27 07:47:08;;;;;;;11.15;7.45;;;23.90;53.70;;;;;;4820127;54;21513;-40
2021/05/27 07:52:09;;;;;;;9.80;7.87;;;23.90;53.60;;;;;;4822952;54;21015;-39
2021/05/27 07:57:10;;;;;;;8.82;7.87;;;23.90;53.80;;;;;;4834223;54;21002;-34
2021/05/27 08:02:11;;;;;;;12.60;8.40;;;23.90;53.90;;;;;;4853251;54;21449;-38
2021/05/27 08:07:12;;;;;;;11.90;8.57;;;23.90;54.10;;;;;;4793512;54;21077;-44
2021/05/27 08:12:13;;;;;;;19.75;9.25;;;24.00;54.70;;;;;;4812409;54;21035;-42
2021/05/27 08:17:14;;;;;;;12.82;9.30;;;24.00;54.10;;;;;;4808236;54;21082;-40
2021/05/27 08:22:16;;;;;;;10.60;8.82;;;24.00;54.00;;;;;;4818282;54;21358;-41
2021/05/27 08:27:17;;;;;;;10.57;9.35;;;24.00;54.00;;;;;;4793679;58;21489;-41
2021/05/27 08:32:18;;;;;;;12.10;9.60;;;24.00;54.00;;;;;;4825068;54;21090;-39
2021/05/27 08:37:19;;;;;;;24.95;15.13;;;24.00;53.90;;;;;;4829963;54;21121;-42
2021/05/27 08:42:21;;;;;;;39.47;28.05;;;24.00;55.20;;;;;;4797270;54;21039;-39
2021/05/27 08:47:23;;;;;;;56.80;43.58;;;23.90;51.60;;;;;;4851340;54;21512;-37
2021/05/27 08:52:24;;;;;;;81.78;60.55;;;23.90;52.00;;;;;;4797908;54;21458;-38
2021/05/27 08:57:25;;;;;;;84.45;61.60;;;23.90;52.20;;;;;;4806298;54;20999;-39
2021/05/27 09:02:26;;;;;;;80.00;62.33;;;24.00;52.90;;;;;;4800707;54;21015;-40
2021/05/27 09:07:42;;;;;;;77.53;59.80;;;24.00;52.50;;;;;;4805312;54;21086;-39
2021/05/27 09:12:43;;;;;;;76.20;56.83;;;24.00;52.60;;;;;;4803912;54;21437;-35
2021/05/27 09:17:46;;;;;;;69.85;54.85;;;24.10;52.90;;;;;;4826130;54;21075;-38
2021/05/27 09:22:48;;;;;;;67.05;54.22;;;24.10;52.90;;;;;;4855633;54;21086;-36
2021/05/27 09:27:49;;;;;;;67.43;52.58;;;24.10;53.00;;;;;;4827275;54;21019;-40
2021/05/27 09:32:51;;;;;;;66.85;51.17;;;24.10;53.20;;;;;;4794572;54;21481;-41
2021/05/27 09:38:05;;;;;;;67.50;51.47;;;24.10;53.30;;;;;;4810284;54;21031;-40
2021/05/27 09:43:09;;;;;;;62.85;49.90;;;24.10;53.40;;;;;;4792060;58;21063;-38
2021/05/27 09:48:25;;;;;;;65.40;51.55;;;24.10;53.50;;;;;;4801607;54;21035;-38
2021/05/27 09:53:27;;;;;;;;;;;24.20;53.60;;;;;;4804042;54;21082;-36
2021/05/27 09:58:28;;;;;;;60.83;47.78;;;24.20;53.70;;;;;;4802138;54;20310;-41
2021/05/27 10:03:41;;;;;;;57.83;48.30;;;24.20;53.80;;;;;;4794430;58;21043;-39
2021/05/27 10:08:54;;;;;;;57.58;46.35;;;24.20;53.90;;;;;;4794006;58;21580;-39
2021/05/27 10:13:55;;;;;;;55.28;43.92;;;24.20;54.00;;;;;;4810806;54;21454;-38
2021/05/27 10:18:58;;;;;;;46.30;35.13;;;24.30;54.00;;;;;;4798732;54;21019;-39
2021/05/27 10:24:03;;;;;;;43.83;32.55;;;24.20;52.70;;;;;;4798417;54;21410;-39
2021/05/27 10:29:05;;;;;;;43.13;32.67;;;24.20;51.80;;;;;;4826439;54;21533;-39
2021/05/27 10:34:07;;;;;;;43.65;32.53;;;24.20;51.30;;;;;;4803910;54;21024;-37
2021/05/27 10:39:08;;;;;;;41.97;30.90;;;24.20;51.30;;;;;;4797367;54;21586;-41
2021/05/27 10:44:14;;;;;;;45.00;33.83;;;24.20;50.60;;;;;;4801275;54;20995;-42
2021/05/27 10:56:15;;;;;;;36.47;29.87;;;24.20;50.10;;;;;;4826651;54;20987;-38
2021/05/27 11:03:09;;;;;;;46.17;34.92;;;24.20;50.00;;;;;;4815587;54;21453;-39
2021/05/27 11:08:17;;;;;;;45.12;35.97;;;24.20;49.60;;;;;;4802195;54;21070;-41
2021/05/27 11:13:18;;;;;;;49.38;36.78;;;24.20;49.50;;;;;;4808221;54;20983;-38
2021/05/27 11:18:31;;;;;;;47.20;36.78;;;24.20;49.10;;;;;;4794384;58;21066;-38
2021/05/27 11:23:33;;;;;;;48.55;35.88;;;24.10;48.90;;;;;;4792834;58;21079;-32
2021/05/27 11:28:34;;;;;;;49.60;36.45;;;24.20;48.70;;;;;;4808600;54;21470;-39
2021/05/27 11:33:37;;;;;;;54.45;39.55;;;24.20;48.50;;;;;;4793003;58;21031;-32
2021/05/27 11:38:40;;;;;;;47.90;36.42;;;24.20;48.50;;;;;;4794805;54;21051;-38
2021/05/27 11:43:44;;;;;;;45.17;34.63;;;24.20;48.60;;;;;;4798182;54;21047;-40
2021/05/27 11:48:56;;;;;;;41.65;32.50;;;24.30;49.10;;;;;;4814312;54;21079;-37
2021/05/27 11:54:06;;;;;;;36.28;26.15;;;24.30;48.60;;;;;;4820774;54;21510;-39
2021/05/27 11:59:28;;;;;;;33.25;20.58;;;24.30;48.00;;;;;;4819441;54;21019;-38
2021/05/27 12:04:30;;;;;;;26.20;19.05;;;24.30;47.40;;;;;;4823534;54;21580;-38
2021/05/27 12:09:49;;;;;;;25.23;19.45;;;24.30;47.30;;;;;;4792805;55;21055;-39
2021/05/27 12:15:02;;;;;;;26.35;19.60;;;24.30;47.50;;;;;;4794639;54;21007;-38
2021/05/27 12:20:17;;;;;;;24.92;18.85;;;24.30;47.50;;;;;;4798349;54;21465;-41
2021/05/27 12:25:21;;;;;;;22.25;18.60;;;24.30;47.70;;;;;;4803684;54;21672;-34
2021/05/27 12:30:28;;;;;;;22.35;18.30;;;24.30;47.90;;;;;;4816412;54;21087;-41
2021/05/27 12:35:32;;;;;;;21.20;18.42;;;24.30;48.10;;;;;;4804851;54;21173;-47
2021/05/27 12:40:40;;;;;;;25.35;18.37;;;24.30;48.20;;;;;;4837106;54;21109;-36
2021/05/27 12:45:45;;;;;;;24.08;18.27;;;24.30;48.50;;;;;;4800616;54;21489;-40
2021/05/27 12:51:20;;;;;;;23.85;17.48;;;24.30;48.90;;;;;;4792547;58;21059;-36
2021/05/27 12:56:23;;;;;;;21.62;17.45;;;24.40;49.30;;;;;;4804446;54;20975;-38
2021/05/27 13:01:39;;;;;;;21.90;18.65;;;24.40;49.80;;;;;;4814358;54;21416;-38
2021/05/27 13:06:40;;;;;;;22.05;17.62;;;24.50;50.10;;;;;;4825979;54;21035;-36
2021/05/27 13:11:46;;;;;;;25.25;18.67;;;24.50;50.40;;;;;;4802748;54;21561;-36
2021/05/27 13:16:52;;;;;;;23.13;18.60;;;24.50;50.80;;;;;;4823384;54;21086;-39
2021/05/27 13:21:55;;;;;;;23.93;18.73;;;24.60;51.10;;;;;;4838496;54;21006;-37
2021/05/27 13:27:53;;;;;;;21.52;16.98;;;24.60;51.30;;;;;;4809643;54;21134;-40
2021/05/27 13:33:05;;;;;;;24.90;17.00;;;24.60;51.50;;;;;;4805207;54;21597;-40
2021/05/27 13:38:06;;;;;;;21.00;17.52;;;24.70;52.00;;;;;;4800276;54;21071;-34
2021/05/27 13:43:08;;;;;;;22.02;17.15;;;24.70;52.40;;;;;;4812725;54;21039;-40
2021/05/27 13:48:09;;;;;;;20.75;16.83;;;24.70;52.80;;;;;;4793118;58;21529;-40
2021/05/27 13:53:11;;;;;;;20.90;17.90;;;24.70;52.90;;;;;;4793857;58;21030;-38
2021/05/27 13:58:12;;;;;;;20.00;16.73;;;24.70;53.30;;;;;;4793830;58;21150;-34
2021/05/27 14:03:14;;;;;;;21.05;16.67;;;24.80;54.20;;;;;;4816146;54;21472;-38
2021/05/27 14:08:17;;;;;;;21.58;17.33;;;24.80;53.70;;;;;;4803443;54;21018;-37
2021/05/27 14:13:19;;;;;;;20.83;16.80;;;24.80;54.00;;;;;;4808104;54;21477;-38
2021/05/27 14:18:19;;;;;;;19.45;16.62;;;24.80;54.20;;;;;;4803466;54;21584;-33
2021/05/27 14:23:20;;;;;;;20.15;17.15;;;24.80;54.30;;;;;;4797339;54;21035;-37
2021/05/27 14:28:22;;;;;;;21.58;17.12;;;24.80;54.80;;;;;;4806421;54;21055;-40
2021/05/27 14:33:22;;;;;;;19.58;16.55;;;24.80;54.30;;;;;;4808669;54;21059;-41
2021/05/27 14:38:23;;;;;;;20.85;16.42;;;24.80;54.40;;;;;;4799088;54;21521;-39
2021/05/27 14:43:24;;;;;;;19.25;16.80;;;24.80;54.50;;;;;;4793050;58;21071;-39
2021/05/27 14:48:25;;;;;;;19.67;16.40;;;24.70;54.50;;;;;;4823847;54;20998;-40
2021/05/27 14:53:27;;;;;;;19.80;16.00;;;24.80;54.50;;;;;;4802715;54;21026;-40
2021/05/27 14:58:28;;;;;;;21.62;16.35;;;24.80;54.70;;;;;;4840921;54;21561;-41
2021/05/27 15:03:29;;;;;;;19.87;15.73;;;24.70;54.70;;;;;;4804372;54;21129;-41
2021/05/27 15:08:30;;;;;;;18.80;16.27;;;24.70;54.80;;;;;;4793158;58;21096;-38
2021/05/27 15:13:31;;;;;;;17.35;15.50;;;24.70;55.60;;;;;;4807129;54;21178;-39
2021/05/27 15:18:33;;;;;;;16.90;15.20;;;24.60;55.00;;;;;;4817395;54;21011;-37
2021/05/27 15:23:34;;;;;;;17.45;15.57;;;24.60;55.10;;;;;;4843742;54;21473;-37
2021/05/27 15:28:35;;;;;;;18.15;15.38;;;24.50;55.20;;;;;;4815851;54;20990;-40
2021/05/27 15:33:36;;;;;;;17.08;15.27;;;24.50;55.20;;;;;;4813048;54;21047;-37
2021/05/27 15:38:37;;;;;;;19.00;16.05;;;24.50;55.20;;;;;;4834371;54;21514;-37
2021/05/27 15:43:38;;;;;;;17.58;15.73;;;24.50;55.40;;;;;;4808335;54;20995;-36
2021/05/27 15:48:39;;;;;;;18.45;14.57;;;24.40;55.30;;;;;;4808660;54;21107;-37
2021/05/27 15:53:40;;;;;;;17.65;14.98;;;24.40;55.30;;;;;;4801292;54;21000;-39
2021/05/27 15:58:40;;;;;;;16.30;14.60;;;24.40;55.40;;;;;;4806895;54;21561;-44
2021/05/27 16:03:41;;;;;;;17.25;14.25;;;24.30;55.30;;;;;;4835479;54;21087;-43
2021/05/27 16:08:42;;;;;;;16.75;14.52;;;24.40;55.40;;;;;;4792999;55;21140;-39
2021/05/27 16:13:44;;;;;;;17.73;15.35;;;24.40;55.40;;;;;;4797697;54;21992;-39
2021/05/27 16:18:45;;;;;;;17.20;14.87;;;24.30;55.40;;;;;;4813264;54;21474;-44
2021/05/27 16:23:46;;;;;;;16.85;15.05;;;24.30;55.40;;;;;;4793719;55;21082;-39
2021/05/27 16:28:47;;;;;;;17.15;15.32;;;24.30;55.40;;;;;;4809412;54;21130;-40
2021/05/27 16:33:49;;;;;;;36.67;17.27;;;24.30;56.80;;;;;;4807041;54;21063;-37
2021/05/27 16:38:50;;;;;;;39.83;16.83;;;24.30;56.60;;;;;;4811231;54;21094;-32
2021/05/27 16:43:51;;;;;;;56.40;17.30;;;24.40;58.70;;;;;;4839886;54;21007;-31
2021/05/27 16:48:53;;;;;;;44.22;16.00;;;24.40;58.80;;;;;;4793466;58;21505;-30
2021/05/27 16:53:54;;;;;;;32.78;15.73;;;24.40;58.80;;;;;;4819446;54;20983;-27
2021/05/27 16:58:56;;;;;;;37.40;17.23;;;24.40;58.70;;;;;;4802629;54;20995;-28
2021/05/27 17:03:57;;;;;;;36.45;15.25;;;24.30;58.70;;;;;;4845053;54;21653;-29
2021/05/27 17:08:58;;;;;;;28.70;14.77;;;24.30;58.60;;;;;;4842341;54;21078;-35
2021/05/27 17:13:58;;;;;;;36.83;15.82;;;24.30;58.40;;;;;;4841996;54;21613;-36
2021/05/27 17:18:59;;;;;;;30.35;16.08;;;24.30;58.30;;;;;;4805117;54;21458;-31
2021/05/27 17:24:00;;;;;;;25.27;15.43;;;24.20;58.20;;;;;;4849899;54;21108;-31
2021/05/27 17:29:09;;;;;;;31.77;15.75;;;24.20;58.10;;;;;;4826685;54;20988;-29
2021/05/27 17:34:10;;;;;;;29.48;15.35;;;24.20;58.00;;;;;;4818363;54;21509;-27
2021/05/27 17:39:11;;;;;;;25.02;14.73;;;24.20;58.00;;;;;;4828127;54;21486;-27
2021/05/27 17:44:12;;;;;;;30.55;15.23;;;24.20;57.90;;;;;;4849100;54;21008;-23
2021/05/27 17:49:14;;;;;;;26.65;15.15;;;24.20;57.70;;;;;;4819360;54;21062;-35
2021/05/27 17:54:14;;;;;;;27.65;15.90;;;24.20;57.70;;;;;;4806062;54;21534;-31
2021/05/27 17:59:15;;;;;;;30.65;15.18;;;24.20;57.60;;;;;;4804850;54;20987;-28
2021/05/27 18:04:16;;;;;;;24.85;14.32;;;24.20;57.60;;;;;;4804731;54;21039;-35
2021/05/27 18:09:17;;;;;;;24.83;15.13;;;24.20;57.40;;;;;;4805497;54;21417;-31
2021/05/27 18:14:18;;;;;;;23.27;15.25;;;24.20;57.40;;;;;;4797935;54;21003;-28
2021/05/27 18:19:20;;;;;;;20.23;13.50;;;24.20;57.30;;;;;;4806522;54;21469;-36
2021/05/27 18:24:20;;;;;;;22.95;14.95;;;24.10;57.20;;;;;;4805089;54;21150;-31
2021/05/27 18:29:21;;;;;;;22.48;14.27;;;24.10;57.20;;;;;;4805145;54;21524;-28
2021/05/27 18:34:23;;;;;;;23.50;14.23;;;24.10;57.10;;;;;;4793304;55;21094;-23
2021/05/27 18:39:24;;;;;;;20.77;14.30;;;24.10;57.00;;;;;;4805214;54;21458;-35
2021/05/27 18:44:27;;;;;;;17.77;13.45;;;24.10;57.00;;;;;;4799305;54;21083;-23
2021/05/27 18:49:28;;;;;;;19.33;13.82;;;24.10;57.00;;;;;;4866350;54;21080;-35
2021/05/27 18:54:29;;;;;;;19.02;13.15;;;24.10;57.00;;;;;;4802536;54;21461;-36
2021/05/27 18:59:30;;;;;;;22.45;14.82;;;24.10;56.90;;;;;;4798991;54;21039;-33
2021/05/27 19:04:31;;;;;;;22.15;14.93;;;24.10;56.90;;;;;;4803322;54;21007;-27
2021/05/27 19:09:32;;;;;;;20.40;13.82;;;24.10;56.90;;;;;;4803528;54;21067;-33
2021/05/27 19:14:33;;;;;;;19.87;13.25;;;24.10;56.90;;;;;;4804054;54;20991;-34
2021/05/27 19:19:34;;;;;;;21.30;13.68;;;24.10;56.80;;;;;;4828493;54;21093;-35
2021/05/27 19:24:35;;;;;;;20.35;13.62;;;24.10;56.80;;;;;;4807322;54;21011;-34
2021/05/27 19:29:37;;;;;;;20.80;13.62;;;24.10;56.80;;;;;;4797790;54;21035;-35
2021/05/27 19:34:38;;;;;;;20.80;14.00;;;24.10;56.70;;;;;;4803241;54;21003;-33
2021/05/27 19:39:39;;;;;;;19.60;13.70;;;24.10;56.70;;;;;;4795758;58;21035;-30
2021/05/27 19:44:40;;;;;;;19.08;13.10;;;24.10;56.70;;;;;;4819690;54;21079;-35
2021/05/27 19:49:41;;;;;;;17.65;12.65;;;24.10;56.70;;;;;;4806788;54;20980;-35
2021/05/27 19:54:41;;;;;;;19.92;12.57;;;24.10;56.70;;;;;;4804568;54;21011;-36
2021/05/27 19:59:42;;;;;;;16.65;12.35;;;24.10;56.60;;;;;;4800957;54;21023;-27
2021/05/27 20:04:43;;;;;;;17.08;12.70;;;24.10;56.50;;;;;;4804794;54;21476;-29
2021/05/27 20:09:44;;;;;;;19.45;13.68;;;24.10;56.50;;;;;;4808904;54;21034;-37
2021/05/27 20:14:45;;;;;;;18.80;13.20;;;24.10;56.50;;;;;;4825771;54;21043;-34
2021/05/27 20:19:46;;;;;;;17.73;12.25;;;24.10;56.40;;;;;;4816570;54;20987;-37
2021/05/27 20:24:47;;;;;;;16.80;12.57;;;24.10;56.40;;;;;;4808655;54;21481;-32
2021/05/27 20:29:48;;;;;;;19.48;12.40;;;24.00;56.30;;;;;;4800086;54;20987;-33
2021/05/27 20:34:49;;;;;;;16.73;11.77;;;24.00;56.30;;;;;;4806736;54;21065;-35
2021/05/27 20:39:50;;;;;;;19.85;12.57;;;24.10;56.30;;;;;;4796397;54;21529;-30
2021/05/27 20:44:50;;;;;;;16.90;12.27;;;24.00;56.20;;;;;;4800082;54;21525;-29
2021/05/27 20:49:51;;;;;;;17.12;12.10;;;24.00;56.20;;;;;;4806863;54;21101;-36
2021/05/27 20:54:52;;;;;;;17.17;12.30;;;24.10;56.20;;;;;;4795248;58;21043;-36
2021/05/27 20:59:53;;;;;;;14.73;11.10;;;24.00;56.10;;;;;;4809660;54;21474;-27
2021/05/27 21:04:54;;;;;;;15.10;11.23;;;24.00;56.20;;;;;;4795711;55;21501;-36
2021/05/27 21:09:54;;;;;;;13.98;10.65;;;24.00;56.10;;;;;;4833809;54;21046;-35
2021/05/27 21:14:55;;;;;;;15.68;11.23;;;24.00;56.10;;;;;;4809918;54;21019;-36
2021/05/27 21:19:58;;;;;;;14.80;11.12;;;24.00;56.10;;;;;;4821198;54;21091;-36
2021/05/27 21:24:59;;;;;;;13.23;10.32;;;24.00;56.10;;;;;;4813708;54;21517;-35
2021/05/27 21:30:01;;;;;;;14.93;10.88;;;24.00;56.70;;;;;;4837502;54;21022;-27
2021/05/27 21:35:02;;;;;;;14.65;10.63;;;24.00;56.00;;;;;;4795344;58;20991;-36
2021/05/27 21:40:05;;;;;;;15.32;10.98;;;24.00;56.10;;;;;;4834053;54;20996;-36
2021/05/27 21:45:07;;;;;;;12.52;10.48;;;24.00;56.10;;;;;;4805130;54;21019;-36
2021/05/27 21:50:09;;;;;;;13.57;10.77;;;24.00;56.10;;;;;;4811525;54;20995;-36
2021/05/27 21:55:12;;;;;;;13.62;10.40;;;24.00;56.00;;;;;;4801373;54;20975;-28
2021/05/27 22:00:14;;;;;;;14.93;11.27;;;24.00;56.00;;;;;;4795741;58;21545;-33
2021/05/27 22:05:15;;;;;;;14.05;10.82;;;24.00;56.10;;;;;;4794855;58;20987;-36
2021/05/27 22:10:16;;;;;;;12.60;10.30;;;24.00;56.00;;;;;;4823615;54;21079;-38
2021/05/27 22:15:18;;;;;;;14.27;10.30;;;24.00;56.20;;;;;;4823117;54;21035;-34
2021/05/27 22:20:19;;;;;;;12.65;9.73;;;24.00;56.00;;;;;;4795572;58;21541;-36
2021/05/27 22:25:19;;;;;;;12.02;9.98;;;24.00;56.10;;;;;;4849475;54;21066;-33
2021/05/27 22:30:21;;;;;;;11.63;9.63;;;24.00;56.00;;;;;;4821853;54;21007;-36
2021/05/27 22:35:22;;;;;;;11.77;10.02;;;24.00;56.00;;;;;;4796501;54;21118;-34
2021/05/27 22:40:23;;;;;;;12.43;10.43;;;24.00;56.00;;;;;;4822095;54;21039;-34
2021/05/27 22:45:24;;;;;;;12.52;10.52;;;24.00;56.00;;;;;;4804452;54;21070;-26
2021/05/27 22:50:26;;;;;;;12.27;9.73;;;24.00;56.00;;;;;;4797044;54;21094;-36
2021/05/27 22:55:27;;;;;;;12.50;9.55;;;24.00;56.00;;;;;;4819131;54;21114;-38
2021/05/27 23:00:28;;;;;;;11.05;9.55;;;24.00;56.00;;;;;;4813797;54;21135;-34
2021/05/27 23:05:30;;;;;;;12.40;9.63;;;24.00;56.00;;;;;;4829038;54;21059;-36
2021/05/27 23:10:31;;;;;;;11.35;9.65;;;24.00;56.00;;;;;;4796396;58;21486;-36
2021/05/27 23:15:35;;;;;;;12.70;9.40;;;24.00;55.90;;;;;;4845577;54;21055;-32
2021/05/27 23:20:36;;;;;;;12.00;9.38;;;24.00;56.00;;;;;;4798130;54;21042;-30
2021/05/27 23:25:38;;;;;;;11.57;9.02;;;24.00;56.00;;;;;;4868396;54;21011;-34
2021/05/27 23:30:38;;;;;;;11.18;9.00;;;24.00;56.00;;;;;;4816265;54;21030;-36
2021/05/27 23:35:39;;;;;;;9.90;8.32;;;24.00;56.00;;;;;;4815063;54;21063;-34
2021/05/27 23:40:40;;;;;;;10.77;9.20;;;24.00;56.00;;;;;;4842499;54;21111;-30
2021/05/27 23:45:41;;;;;;;9.63;8.15;;;24.00;56.00;;;;;;4794885;58;21023;-30
2021/05/27 23:50:42;;;;;;;10.75;8.63;;;24.00;56.00;;;;;;4822077;54;20988;-30
2021/05/27 23:55:43;;;;;;;10.85;8.75;;;24.00;56.00;;;;;;4866939;54;20995;-32
